PWSweather.com
Personal Weather Stations
Station Observations
KNJOAKLA6
Oakland, NJ 07436

Oakland, NJ 07436

Lat: 41.041, Lon: -74.231

Elevation: 280

Station Type: Davis VP 2

http://stratacolorado.com/oaknjwx/

Latest ConditionsUpdated 9:20:00 PM EDT Sunday, May 1, 2016
Currently Today's Max Today's Min Today's Average
Temperature 44.3°F6.8°C 46.8°F8.2°C 44.3°F6.8°C 45.9°F7.7°C
Dew Point 43.0°F6.1°C 44.9°F7.2°C 37.2°F2.9°C 42.7°F5.9°C
Winds 1.0 mph ENE1.6 kmh ENE 2.0 mph S3.2 kmh S - 0.2 mph 0.3 kmh
Wind Gusts 5.0 mph8.0 kmh 10.0 mph16.1 kmh - -
Humidity 95% 95% 74% 89%
Pressure 30.09 in1019.0 mb 30.21 in1023.0 mb 30.08 in1018.6 mb -
Precipitation - 0.40 in10.2 mm - -
Hour Temp Dew Point Humidity Winds Wind Gusts Pressure Precip Precip Rate Daily Precip Total
09:20 PM 44.3°F6.8°C 43.0°F6.1°C 95% 1.0 mph ENE1.6 kmh ENE 5.0 mph8.0 kmh 30.09 in1019.0 mb 0.00 in0.0 mm 0.00 in0.0 mm 0.40 in10.2 mm
09:10 PM 44.6°F7.0°C 43.3°F6.3°C 95% 2.0 mph ENE3.2 kmh ENE 6.0 mph9.7 kmh 30.08 in1018.6 mb 0.00 in0.0 mm 0.00 in0.0 mm 0.40 in10.2 mm
09:00 PM 44.9°F7.2°C 43.6°F6.4°C 95% 1.0 mph ENE1.6 kmh ENE 4.0 mph6.4 kmh 30.08 in1018.6 mb 0.00 in0.0 mm 0.00 in0.0 mm 0.40 in10.2 mm
08:50 PM 45.0°F7.2°C 43.7°F6.5°C 95% Calm Calm 4.0 mph6.4 kmh 30.09 in1019.0 mb 0.00 in0.0 mm 0.00 in0.0 mm 0.40 in10.2 mm
08:40 PM 45.3°F7.4°C 44.0°F6.7°C 95% Calm Calm 3.0 mph4.8 kmh 30.09 in1019.0 mb 0.01 in0.3 mm 0.00 in0.0 mm 0.40 in10.2 mm
08:30 PM 45.5°F7.5°C 44.2°F6.8°C 95% Calm Calm 3.0 mph4.8 kmh 30.09 in1019.0 mb 0.01 in0.3 mm 0.00 in0.0 mm 0.40 in10.2 mm
08:20 PM 45.6°F7.6°C 44.3°F6.8°C 95% 1.0 mph E1.6 kmh E 4.0 mph6.4 kmh 30.09 in1019.0 mb 0.01 in0.3 mm 0.00 in0.0 mm 0.40 in10.2 mm
08:10 PM 45.7°F7.6°C 44.4°F6.9°C 95% 1.0 mph E1.6 kmh E 4.0 mph6.4 kmh 30.09 in1019.0 mb 0.01 in0.3 mm 0.00 in0.0 mm 0.40 in10.2 mm
08:00 PM 45.8°F7.7°C 44.5°F6.9°C 95% 2.0 mph E3.2 kmh E 4.0 mph6.4 kmh 30.08 in1018.6 mb 0.01 in0.3 mm 0.00 in0.0 mm 0.40 in10.2 mm
07:50 PM 45.8°F7.7°C 44.5°F6.9°C 95% Calm Calm 2.0 mph3.2 kmh 30.08 in1018.6 mb 0.01 in0.3 mm 0.06 in1.5 mm 0.40 in10.2 mm
07:40 PM 45.8°F7.7°C 44.5°F6.9°C 95% Calm Calm 2.0 mph3.2 kmh 30.08 in1018.6 mb 0.00 in0.0 mm 0.00 in0.0 mm 0.39 in9.9 mm
07:30 PM 45.8°F7.7°C 44.5°F6.9°C 95% Calm Calm -- 30.08 in1018.6 mb 0.00 in0.0 mm 0.00 in0.0 mm 0.39 in9.9 mm
07:20 PM 45.8°F7.7°C 44.5°F6.9°C 95% Calm Calm 1.0 mph1.6 kmh 30.08 in1018.6 mb 0.01 in0.3 mm 0.00 in0.0 mm 0.39 in9.9 mm
07:10 PM 45.8°F7.7°C 44.5°F6.9°C 95% Calm Calm 3.0 mph4.8 kmh 30.08 in1018.6 mb 0.02 in0.5 mm 0.00 in0.0 mm 0.39 in9.9 mm
07:00 PM 45.9°F7.7°C 44.5°F6.9°C 95% Calm Calm 3.0 mph4.8 kmh 30.08 in1018.6 mb 0.03 in0.8 mm 0.00 in0.0 mm 0.39 in9.9 mm
06:50 PM 45.9°F7.7°C 44.5°F6.9°C 95% Calm Calm 2.0 mph3.2 kmh 30.08 in1018.6 mb 0.05 in1.3 mm 0.00 in0.0 mm 0.39 in9.9 mm
06:40 PM 45.9°F7.7°C 44.5°F6.9°C 95% Calm Calm 3.0 mph4.8 kmh 30.08 in1018.6 mb 0.07 in1.8 mm 0.00 in0.0 mm 0.39 in9.9 mm
06:30 PM 45.9°F7.7°C 44.3°F6.8°C 94% Calm Calm 4.0 mph6.4 kmh 30.08 in1018.6 mb 0.07 in1.8 mm 0.00 in0.0 mm 0.38 in9.7 mm
06:20 PM 46.0°F7.8°C 44.4°F6.9°C 94% Calm Calm 4.0 mph6.4 kmh 30.08 in1018.6 mb 0.08 in2.0 mm 0.00 in0.0 mm 0.38 in9.7 mm
06:10 PM 45.9°F7.7°C 44.3°F6.8°C 94% Calm Calm 4.0 mph6.4 kmh 30.09 in1019.0 mb 0.08 in2.0 mm 0.00 in0.0 mm 0.36 in9.1 mm
06:00 PM 46.0°F7.8°C 44.4°F6.9°C 94% Calm Calm 5.0 mph8.0 kmh 30.09 in1019.0 mb 0.11 in2.8 mm 0.01 in0.3 mm 0.36 in9.1 mm
05:50 PM 46.1°F7.8°C 44.5°F6.9°C 94% Calm Calm 4.0 mph6.4 kmh 30.09 in1019.0 mb 0.10 in2.5 mm 0.12 in3.0 mm 0.34 in8.6 mm
05:40 PM 46.1°F7.8°C 44.5°F6.9°C 94% Calm Calm 3.0 mph4.8 kmh 30.10 in1019.3 mb 0.08 in2.0 mm 0.00 in0.0 mm 0.32 in8.1 mm
05:30 PM 46.2°F7.9°C 44.6°F7.0°C 94% Calm Calm 2.0 mph3.2 kmh 30.10 in1019.3 mb 0.08 in2.0 mm 0.06 in1.5 mm 0.31 in7.9 mm
05:20 PM 46.2°F7.9°C 44.6°F7.0°C 94% Calm Calm 4.0 mph6.4 kmh 30.10 in1019.3 mb 0.07 in1.8 mm 0.18 in4.6 mm 0.30 in7.6 mm
05:10 PM 46.4°F8.0°C 44.8°F7.1°C 94% Calm Calm 3.0 mph4.8 kmh 30.10 in1019.3 mb 0.04 in1.0 mm 0.18 in4.6 mm 0.27 in6.9 mm
05:00 PM 46.4°F8.0°C 44.8°F7.1°C 94% 1.0 mph E1.6 kmh E 4.0 mph6.4 kmh 30.10 in1019.3 mb 0.01 in0.3 mm 0.00 in0.0 mm 0.24 in6.1 mm
04:50 PM 46.3°F7.9°C 44.7°F7.1°C 94% Calm Calm -- 30.10 in1019.3 mb 0.01 in0.3 mm 0.00 in0.0 mm 0.24 in6.1 mm
04:40 PM 46.3°F7.9°C 44.7°F7.1°C 94% Calm Calm 2.0 mph3.2 kmh 30.10 in1019.3 mb 0.02 in0.5 mm 0.06 in1.5 mm 0.24 in6.1 mm
04:30 PM 46.2°F7.9°C 44.6°F7.0°C 94% Calm Calm -- 30.10 in1019.3 mb 0.01 in0.3 mm 0.00 in0.0 mm 0.23 in5.8 mm
04:20 PM 46.1°F7.8°C 44.5°F6.9°C 94% Calm Calm 1.0 mph1.6 kmh 30.10 in1019.3 mb 0.01 in0.3 mm 0.00 in0.0 mm 0.23 in5.8 mm
04:10 PM 46.1°F7.8°C 44.5°F6.9°C 94% Calm Calm -- 30.11 in1019.6 mb 0.01 in0.3 mm 0.00 in0.0 mm 0.23 in5.8 mm
04:00 PM 46.1°F7.8°C 44.5°F6.9°C 94% Calm Calm -- 30.11 in1019.6 mb 0.02 in0.5 mm 0.00 in0.0 mm 0.23 in5.8 mm
03:50 PM 46.1°F7.8°C 44.2°F6.8°C 93% Calm Calm 2.0 mph3.2 kmh 30.11 in1019.6 mb 0.02 in0.5 mm 0.00 in0.0 mm 0.23 in5.8 mm
03:40 PM 46.0°F7.8°C 44.1°F6.7°C 93% Calm Calm -- 30.11 in1019.6 mb 0.02 in0.5 mm 0.00 in0.0 mm 0.22 in5.6 mm
03:30 PM 46.0°F7.8°C 44.1°F6.7°C 93% Calm Calm 2.0 mph3.2 kmh 30.12 in1020.0 mb 0.03 in0.8 mm 0.00 in0.0 mm 0.22 in5.6 mm
03:20 PM 46.1°F7.8°C 44.2°F6.8°C 93% Calm Calm 3.0 mph4.8 kmh 30.11 in1019.6 mb 0.04 in1.0 mm 0.00 in0.0 mm 0.22 in5.6 mm
03:10 PM 46.2°F7.9°C 44.3°F6.8°C 93% Calm Calm 3.0 mph4.8 kmh 30.11 in1019.6 mb 0.04 in1.0 mm 0.06 in1.5 mm 0.22 in5.6 mm
03:00 PM 46.3°F7.9°C 44.4°F6.9°C 93% 2.0 mph E3.2 kmh E 6.0 mph9.7 kmh 30.11 in1019.6 mb 0.03 in0.8 mm 0.00 in0.0 mm 0.21 in5.3 mm
02:50 PM 46.4°F8.0°C 44.5°F6.9°C 93% 1.0 mph SE1.6 kmh SE 6.0 mph9.7 kmh 30.12 in1020.0 mb 0.04 in1.0 mm 0.06 in1.5 mm 0.21 in5.3 mm
02:40 PM 46.5°F8.1°C 44.6°F7.0°C 93% 1.0 mph ESE1.6 kmh ESE 4.0 mph6.4 kmh 30.12 in1020.0 mb 0.03 in0.8 mm 0.06 in1.5 mm 0.20 in5.1 mm
02:30 PM 46.5°F8.1°C 44.6°F7.0°C 93% Calm Calm 5.0 mph8.0 kmh 30.12 in1020.0 mb 0.02 in0.5 mm 0.06 in1.5 mm 0.19 in4.8 mm
02:20 PM 46.5°F8.1°C 44.6°F7.0°C 93% Calm Calm 5.0 mph8.0 kmh 30.12 in1020.0 mb 0.01 in0.3 mm 0.00 in0.0 mm 0.18 in4.6 mm
02:10 PM 46.5°F8.1°C 44.6°F7.0°C 93% Calm Calm 5.0 mph8.0 kmh 30.12 in1020.0 mb 0.02 in0.5 mm 0.00 in0.0 mm 0.18 in4.6 mm
02:00 PM 46.7°F8.2°C 44.8°F7.1°C 93% 1.0 mph SE1.6 kmh SE 3.0 mph4.8 kmh 30.13 in1020.3 mb 0.02 in0.5 mm 0.01 in0.3 mm 0.18 in4.6 mm
01:50 PM 46.5°F8.1°C 44.6°F7.0°C 93% 1.0 mph SSE1.6 kmh SSE 4.0 mph6.4 kmh 30.13 in1020.3 mb 0.01 in0.3 mm 0.00 in0.0 mm 0.17 in4.3 mm
01:40 PM 46.4°F8.0°C 44.5°F6.9°C 93% 1.0 mph SSE1.6 kmh SSE 10.0 mph16.1 kmh 30.13 in1020.3 mb 0.01 in0.3 mm 0.00 in0.0 mm 0.17 in4.3 mm
01:30 PM 46.6°F8.1°C 44.7°F7.1°C 93% Calm Calm 5.0 mph8.0 kmh 30.13 in1020.3 mb 0.01 in0.3 mm 0.00 in0.0 mm 0.17 in4.3 mm
01:20 PM 46.7°F8.2°C 44.8°F7.1°C 93% Calm Calm 4.0 mph6.4 kmh 30.13 in1020.3 mb 0.01 in0.3 mm 0.06 in1.5 mm 0.17 in4.3 mm
01:10 PM 46.7°F8.2°C 44.8°F7.1°C 93% Calm Calm 3.0 mph4.8 kmh 30.13 in1020.3 mb 0.00 in0.0 mm 0.00 in0.0 mm 0.16 in4.1 mm
01:00 PM 46.7°F8.2°C 44.8°F7.1°C 93% Calm Calm 3.0 mph4.8 kmh 30.13 in1020.3 mb 0.01 in0.3 mm 0.00 in0.0 mm 0.16 in4.1 mm
12:50 PM 46.8°F8.2°C 44.9°F7.2°C 93% Calm Calm 3.0 mph4.8 kmh 30.14 in1020.7 mb 0.01 in0.3 mm 0.00 in0.0 mm 0.16 in4.1 mm
12:40 PM 46.7°F8.2°C 44.8°F7.1°C 93% Calm Calm -- 30.14 in1020.7 mb 0.01 in0.3 mm 0.00 in0.0 mm 0.16 in4.1 mm
12:30 PM 46.6°F8.1°C 44.4°F6.9°C 92% Calm Calm 6.0 mph9.7 kmh 30.14 in1020.7 mb 0.02 in0.5 mm 0.00 in0.0 mm 0.16 in4.1 mm
12:20 PM 46.3°F7.9°C 44.1°F6.7°C 92% Calm Calm 1.0 mph1.6 kmh 30.14 in1020.7 mb 0.02 in0.5 mm 0.06 in1.5 mm 0.16 in4.1 mm
12:10 PM 46.1°F7.8°C 43.9°F6.6°C 92% Calm Calm 3.0 mph4.8 kmh 30.15 in1021.0 mb 0.01 in0.3 mm 0.00 in0.0 mm 0.15 in3.8 mm
12:00 PM 45.9°F7.7°C 43.7°F6.5°C 92% Calm Calm 1.0 mph1.6 kmh 30.15 in1021.0 mb 0.01 in0.3 mm 0.00 in0.0 mm 0.15 in3.8 mm
11:50 AM 45.7°F7.6°C 43.2°F6.2°C 91% Calm Calm -- 30.15 in1021.0 mb 0.01 in0.3 mm 0.00 in0.0 mm 0.15 in3.8 mm
11:40 AM 45.7°F7.6°C 43.2°F6.2°C 91% Calm Calm 1.0 mph1.6 kmh 30.16 in1021.3 mb 0.02 in0.5 mm 0.06 in1.5 mm 0.15 in3.8 mm
11:30 AM 45.7°F7.6°C 43.2°F6.2°C 91% Calm Calm 3.0 mph4.8 kmh 30.16 in1021.3 mb 0.01 in0.3 mm 0.00 in0.0 mm 0.14 in3.6 mm
11:20 AM 45.4°F7.4°C 42.9°F6.1°C 91% 1.0 mph S1.6 kmh S 3.0 mph4.8 kmh 30.16 in1021.3 mb 0.01 in0.3 mm 0.00 in0.0 mm 0.14 in3.6 mm
11:10 AM 45.1°F7.3°C 42.6°F5.9°C 91% Calm Calm -- 30.17 in1021.7 mb 0.01 in0.3 mm 0.00 in0.0 mm 0.14 in3.6 mm
11:00 AM 44.8°F7.1°C 42.0°F5.6°C 90% Calm Calm -- 30.17 in1021.7 mb 0.01 in0.3 mm 0.00 in0.0 mm 0.14 in3.6 mm
10:50 AM 44.7°F7.1°C 41.9°F5.5°C 90% Calm Calm -- 30.18 in1022.0 mb 0.01 in0.3 mm 0.00 in0.0 mm 0.14 in3.6 mm
10:30 AM 44.6°F7.0°C 41.6°F5.3°C 89% Calm Calm -- 30.18 in1022.0 mb 0.01 in0.3 mm 0.00 in0.0 mm 0.13 in3.3 mm
10:20 AM 44.7°F7.1°C 41.9°F5.5°C 90% Calm Calm 4.0 mph6.4 kmh 30.18 in1022.0 mb 0.01 in0.3 mm 0.00 in0.0 mm 0.13 in3.3 mm
10:10 AM 45.0°F7.2°C 42.2°F5.7°C 90% Calm Calm -- 30.18 in1022.0 mb 0.02 in0.5 mm 0.00 in0.0 mm 0.13 in3.3 mm
10:00 AM 45.0°F7.2°C 42.2°F5.7°C 90% Calm Calm 1.0 mph1.6 kmh 30.19 in1022.4 mb 0.03 in0.8 mm 0.00 in0.0 mm 0.13 in3.3 mm
09:50 AM 45.5°F7.5°C 42.7°F5.9°C 90% Calm Calm 1.0 mph1.6 kmh 30.19 in1022.4 mb 0.03 in0.8 mm 0.00 in0.0 mm 0.12 in3.0 mm
09:40 AM 45.8°F7.7°C 43.3°F6.3°C 91% Calm Calm 2.0 mph3.2 kmh 30.19 in1022.4 mb 0.04 in1.0 mm 0.00 in0.0 mm 0.12 in3.0 mm
09:30 AM 46.1°F7.8°C 43.6°F6.4°C 91% 1.0 mph S1.6 kmh S 4.0 mph6.4 kmh 30.19 in1022.4 mb 0.05 in1.3 mm 0.00 in0.0 mm 0.12 in3.0 mm
09:20 AM 46.4°F8.0°C 44.2°F6.8°C 92% 2.0 mph S3.2 kmh S 6.0 mph9.7 kmh 30.18 in1022.0 mb 0.07 in1.8 mm 0.00 in0.0 mm 0.12 in3.0 mm
09:10 AM 46.4°F8.0°C 44.2°F6.8°C 92% 1.0 mph SSE1.6 kmh SSE 3.0 mph4.8 kmh 30.18 in1022.0 mb 0.08 in2.0 mm 0.00 in0.0 mm 0.11 in2.8 mm
09:00 AM 46.5°F8.1°C 44.0°F6.7°C 91% Calm Calm 3.0 mph4.8 kmh 30.18 in1022.0 mb 0.08 in2.0 mm 0.01 in0.3 mm 0.10 in2.5 mm
08:50 AM 46.5°F8.1°C 44.0°F6.7°C 91% Calm Calm -- 30.19 in1022.4 mb 0.07 in1.8 mm 0.00 in0.0 mm 0.09 in2.3 mm
08:40 AM 46.5°F8.1°C 44.0°F6.7°C 91% Calm Calm 1.0 mph1.6 kmh 30.19 in1022.4 mb 0.07 in1.8 mm 0.06 in1.5 mm 0.08 in2.0 mm
08:30 AM 46.6°F8.1°C 43.8°F6.6°C 90% Calm Calm 3.0 mph4.8 kmh 30.19 in1022.4 mb 0.06 in1.5 mm 0.12 in3.0 mm 0.07 in1.8 mm
08:20 AM 46.6°F8.1°C 43.8°F6.6°C 90% Calm Calm -- 30.19 in1022.4 mb 0.04 in1.0 mm 0.06 in1.5 mm 0.05 in1.3 mm
08:10 AM 46.5°F8.1°C 43.7°F6.5°C 90% Calm Calm -- 30.19 in1022.4 mb 0.03 in0.8 mm 0.06 in1.5 mm 0.03 in0.8 mm
08:00 AM 46.5°F8.1°C 43.4°F6.3°C 89% Calm Calm -- 30.19 in1022.4 mb 0.02 in0.5 mm 0.00 in0.0 mm 0.02 in0.5 mm
07:50 AM 46.5°F8.1°C 43.4°F6.3°C 89% Calm Calm -- 30.19 in1022.4 mb 0.02 in0.5 mm 0.06 in1.5 mm 0.02 in0.5 mm
07:40 AM 46.5°F8.1°C 43.4°F6.3°C 89% Calm Calm -- 30.18 in1022.0 mb 0.01 in0.3 mm 0.00 in0.0 mm 0.01 in0.3 mm
07:30 AM 46.5°F8.1°C 43.1°F6.2°C 88% Calm Calm -- 30.18 in1022.0 mb 0.01 in0.3 mm 0.06 in1.5 mm 0.01 in0.3 mm
07:20 AM 46.5°F8.1°C 43.1°F6.2°C 88% Calm Calm -- 30.17 in1021.7 mb 0.00 in0.0 mm 0.00 in0.0 mm 0.00 in0.0 mm
07:10 AM 46.4°F8.0°C 42.7°F5.9°C 87% Calm Calm -- 30.18 in1022.0 mb 0.00 in0.0 mm 0.00 in0.0 mm 0.00 in0.0 mm
07:00 AM 46.3°F7.9°C 42.6°F5.9°C 87% Calm Calm -- 30.18 in1022.0 mb 0.00 in0.0 mm 0.00 in0.0 mm 0.00 in0.0 mm
06:50 AM 46.4°F8.0°C 42.7°F5.9°C 87% Calm Calm -- 30.17 in1021.7 mb 0.00 in0.0 mm 0.00 in0.0 mm 0.00 in0.0 mm
06:40 AM 46.4°F8.0°C 42.7°F5.9°C 87% Calm Calm -- 30.17 in1021.7 mb 0.00 in0.0 mm 0.00 in0.0 mm 0.00 in0.0 mm
06:30 AM 46.3°F7.9°C 42.3°F5.7°C 86% Calm Calm -- 30.17 in1021.7 mb 0.00 in0.0 mm 0.00 in0.0 mm 0.00 in0.0 mm
06:20 AM 46.4°F8.0°C 42.1°F5.6°C 85% Calm Calm -- 30.17 in1021.7 mb 0.00 in0.0 mm 0.00 in0.0 mm 0.00 in0.0 mm
06:10 AM 46.4°F8.0°C 42.1°F5.6°C 85% Calm Calm -- 30.17 in1021.7 mb 0.00 in0.0 mm 0.00 in0.0 mm 0.00 in0.0 mm
06:00 AM 46.4°F8.0°C 41.8°F5.4°C 84% Calm Calm -- 30.17 in1021.7 mb 0.00 in0.0 mm 0.00 in0.0 mm 0.00 in0.0 mm
05:50 AM 46.4°F8.0°C 41.8°F5.4°C 84% Calm Calm -- 30.17 in1021.7 mb 0.00 in0.0 mm 0.00 in0.0 mm 0.00 in0.0 mm
05:40 AM 46.3°F7.9°C 41.7°F5.4°C 84% Calm Calm -- 30.17 in1021.7 mb 0.00 in0.0 mm 0.00 in0.0 mm 0.00 in0.0 mm
05:30 AM 46.3°F7.9°C 41.4°F5.2°C 83% Calm Calm -- 30.16 in1021.3 mb 0.00 in0.0 mm 0.00 in0.0 mm 0.00 in0.0 mm
05:20 AM 46.3°F7.9°C 41.4°F5.2°C 83% Calm Calm -- 30.17 in1021.7 mb 0.00 in0.0 mm 0.00 in0.0 mm 0.00 in0.0 mm
05:10 AM 46.3°F7.9°C 41.4°F5.2°C 83% Calm Calm -- 30.17 in1021.7 mb 0.00 in0.0 mm 0.00 in0.0 mm 0.00 in0.0 mm
04:50 AM 46.2°F7.9°C 41.0°F5.0°C 82% Calm Calm -- 30.17 in1021.7 mb 0.00 in0.0 mm 0.00 in0.0 mm 0.00 in0.0 mm
04:40 AM 46.2°F7.9°C 41.0°F5.0°C 82% Calm Calm -- 30.17 in1021.7 mb 0.00 in0.0 mm 0.00 in0.0 mm 0.00 in0.0 mm
04:30 AM 46.2°F7.9°C 40.7°F4.8°C 81% Calm Calm -- 30.16 in1021.3 mb 0.00 in0.0 mm 0.00 in0.0 mm 0.00 in0.0 mm
04:20 AM 46.1°F7.8°C 40.6°F4.8°C 81% Calm Calm -- 30.16 in1021.3 mb 0.00 in0.0 mm 0.00 in0.0 mm 0.00 in0.0 mm
04:10 AM 46.1°F7.8°C 40.6°F4.8°C 81% Calm Calm -- 30.16 in1021.3 mb 0.00 in0.0 mm 0.00 in0.0 mm 0.00 in0.0 mm
04:00 AM 46.1°F7.8°C 40.3°F4.6°C 80% Calm Calm -- 30.16 in1021.3 mb 0.00 in0.0 mm 0.00 in0.0 mm 0.00 in0.0 mm
03:50 AM 46.0°F7.8°C 40.2°F4.6°C 80% Calm Calm -- 30.17 in1021.7 mb 0.00 in0.0 mm 0.00 in0.0 mm 0.00 in0.0 mm
03:40 AM 46.0°F7.8°C 40.2°F4.6°C 80% Calm Calm -- 30.17 in1021.7 mb 0.00 in0.0 mm 0.00 in0.0 mm 0.00 in0.0 mm
03:30 AM 46.0°F7.8°C 40.2°F4.6°C 80% Calm Calm -- 30.17 in1021.7 mb 0.00 in0.0 mm 0.00 in0.0 mm 0.00 in0.0 mm
03:10 AM 45.8°F7.7°C 40.3°F4.6°C 81% Calm Calm -- 30.17 in1021.7 mb 0.00 in0.0 mm 0.00 in0.0 mm 0.00 in0.0 mm
03:00 AM 45.8°F7.7°C 40.0°F4.4°C 80% Calm Calm -- 30.17 in1021.7 mb 0.00 in0.0 mm 0.00 in0.0 mm 0.00 in0.0 mm
02:50 AM 45.7°F7.6°C 39.9°F4.4°C 80% Calm Calm -- 30.17 in1021.7 mb 0.00 in0.0 mm 0.00 in0.0 mm 0.00 in0.0 mm
02:40 AM 45.6°F7.6°C 39.8°F4.3°C 80% Calm Calm -- 30.17 in1021.7 mb 0.00 in0.0 mm 0.00 in0.0 mm 0.00 in0.0 mm
02:30 AM 45.6°F7.6°C 39.8°F4.3°C 80% Calm Calm -- 30.18 in1022.0 mb 0.00 in0.0 mm 0.00 in0.0 mm 0.00 in0.0 mm
02:20 AM 45.5°F7.5°C 39.4°F4.1°C 79% Calm Calm -- 30.18 in1022.0 mb 0.00 in0.0 mm 0.00 in0.0 mm 0.00 in0.0 mm
02:10 AM 45.5°F7.5°C 39.4°F4.1°C 79% Calm Calm -- 30.17 in1021.7 mb 0.00 in0.0 mm 0.00 in0.0 mm 0.00 in0.0 mm
02:00 AM 45.4°F7.4°C 38.9°F3.8°C 78% Calm Calm -- 30.18 in1022.0 mb 0.00 in0.0 mm 0.00 in0.0 mm 0.00 in0.0 mm
01:50 AM 45.4°F7.4°C 38.9°F3.8°C 78% Calm Calm -- 30.18 in1022.0 mb 0.00 in0.0 mm 0.00 in0.0 mm 0.00 in0.0 mm
01:40 AM 45.3°F7.4°C 38.5°F3.6°C 77% Calm Calm -- 30.18 in1022.0 mb 0.00 in0.0 mm 0.00 in0.0 mm 0.00 in0.0 mm
01:30 AM 45.3°F7.4°C 38.5°F3.6°C 77% Calm Calm -- 30.18 in1022.0 mb 0.00 in0.0 mm 0.00 in0.0 mm 0.00 in0.0 mm
01:20 AM 45.2°F7.3°C 38.1°F3.4°C 76% Calm Calm -- 30.19 in1022.4 mb 0.00 in0.0 mm 0.00 in0.0 mm 0.00 in0.0 mm
01:10 AM 45.2°F7.3°C 38.1°F3.4°C 76% Calm Calm -- 30.19 in1022.4 mb 0.00 in0.0 mm 0.00 in0.0 mm 0.00 in0.0 mm
01:00 AM 45.1°F7.3°C 38.0°F3.3°C 76% Calm Calm -- 30.19 in1022.4 mb 0.00 in0.0 mm 0.00 in0.0 mm 0.00 in0.0 mm
12:50 AM 45.1°F7.3°C 37.7°F3.2°C 75% Calm Calm -- 30.20 in1022.7 mb 0.00 in0.0 mm 0.00 in0.0 mm 0.00 in0.0 mm
12:40 AM 45.0°F7.2°C 37.6°F3.1°C 75% Calm Calm -- 30.20 in1022.7 mb 0.00 in0.0 mm 0.00 in0.0 mm 0.00 in0.0 mm
12:30 AM 45.0°F7.2°C 37.6°F3.1°C 75% Calm Calm -- 30.20 in1022.7 mb 0.00 in0.0 mm 0.00 in0.0 mm 0.00 in0.0 mm
12:20 AM 45.0°F7.2°C 37.9°F3.3°C 76% Calm Calm -- 30.20 in1022.7 mb 0.00 in0.0 mm 0.00 in0.0 mm 0.00 in0.0 mm
12:10 AM 45.0°F7.2°C 37.6°F3.1°C 75% Calm Calm -- 30.21 in1023.0 mb 0.00 in0.0 mm 0.00 in0.0 mm 0.00 in0.0 mm
12:00 AM 45.0°F7.2°C 37.2°F2.9°C 74% Calm Calm -- 30.21 in1023.0 mb 0.00 in0.0 mm 0.00 in0.0 mm 0.00 in0.0 mm